Time;durP1;ratioP1;P1;durP2;ratioP2;P2;SDS_P1;SDS_P2;PMS_P1;PMS_P2;Temp;Humidity;BMP_temperature;BMP_pressure;BME280_temperature;BME280_humidity;BME280_pressure;Samples;Min_cycle;Max_cycle;Signal;HPM_P1;HPM_P2
2023/12/06 00:01:51;;;;;;;21.83;13.80;;;2.20;99.90;;;;;;5085192;28;19962;-74
2023/12/06 00:04:16;;;;;;;;;;;2.80;99.90;;;;;;5092991;28;20122;-74
2023/12/06 00:06:42;;;;;;;22.70;14.05;;;2.20;99.90;;;;;;5093070;28;19920;-73
2023/12/06 00:09:07;;;;;;;;;;;2.20;99.90;;;;;;5094557;28;20040;-73
2023/12/06 00:11:33;;;;;;;21.90;13.70;;;2.20;99.90;;;;;;5093015;28;19938;-73
2023/12/06 00:13:59;;;;;;;21.45;13.85;;;2.20;99.90;;;;;;5092603;28;20051;-73
2023/12/06 00:16:24;;;;;;;;;;;2.20;99.90;;;;;;5093094;28;20075;-73
2023/12/06 00:18:50;;;;;;;19.95;13.52;;;2.90;99.90;;;;;;5093008;28;19966;-73
2023/12/06 00:21:15;;;;;;;;;;;2.20;99.90;;;;;;5092902;28;20131;-73
2023/12/06 00:23:41;;;;;;;20.40;13.23;;;2.20;99.90;;;;;;5090740;28;19920;-73
2023/12/06 00:26:06;;;;;;;;;;;2.20;99.90;;;;;;5093467;28;20565;-74
2023/12/06 00:28:35;;;;;;;20.08;13.27;;;2.20;99.90;;;;;;5092828;28;20022;-73
2023/12/06 00:31:01;;;;;;;21.20;12.73;;;2.30;99.90;;;;;;5092096;28;20429;-74
2023/12/06 00:33:28;;;;;;;;;;;2.20;99.90;;;;;;5092904;28;20123;-73
2023/12/06 00:35:56;;;;;;;21.90;13.70;;;2.30;99.90;;;;;;5092196;28;19920;-73
2023/12/06 00:38:21;;;;;;;20.60;14.05;;;2.30;99.90;;;;;;5091788;28;20071;-73
2023/12/06 00:40:47;;;;;;;;;;;2.30;99.90;;;;;;5091849;28;20140;-73
2023/12/06 00:43:13;;;;;;;23.13;14.40;;;2.30;99.90;;;;;;5071860;28;20023;-73
2023/12/06 00:45:38;;;;;;;;;;;2.30;99.90;;;;;;5072231;28;20431;-73
2023/12/06 00:48:04;;;;;;;20.77;14.32;;;2.60;99.90;;;;;;5072203;28;19921;-73
2023/12/06 00:50:29;;;;;;;;;;;2.30;99.90;;;;;;5073905;28;20075;-73
2023/12/06 00:52:55;;;;;;;23.38;15.00;;;2.30;99.90;;;;;;5074128;28;19921;-73
2023/12/06 00:55:20;;;;;;;;;;;2.30;99.90;;;;;;5072215;28;20040;-74
2023/12/06 00:57:46;;;;;;;20.13;12.68;;;2.30;99.90;;;;;;5073552;28;20367;-73
2023/12/06 01:00:12;;;;;;;22.00;13.68;;;2.30;99.90;;;;;;5071279;28;20072;-73
2023/12/06 01:02:38;;;;;;;20.25;12.52;;;2.30;99.90;;;;;;5087815;28;20043;-73
2023/12/06 01:05:04;;;;;;;;;;;2.30;99.90;;;;;;5088871;28;20131;-73
2023/12/06 01:07:30;;;;;;;23.50;13.43;;;2.30;99.90;;;;;;5090233;28;20194;-73
2023/12/06 01:09:55;;;;;;;;;;;2.90;99.90;;;;;;5093997;28;20502;-73
2023/12/06 01:12:21;;;;;;;18.15;12.27;;;2.40;99.90;;;;;;5090813;28;19916;-74
2023/12/06 01:14:46;;;;;;;;;;;2.40;99.90;;;;;;5091836;28;20112;-74
2023/12/06 01:17:12;;;;;;;15.65;10.27;;;2.40;99.90;;;;;;5091819;28;19924;-71
2023/12/06 01:19:38;;;;;;;15.80;10.60;;;2.40;99.90;;;;;;5089978;28;20134;-71
2023/12/06 01:22:03;;;;;;;;;;;2.40;99.90;;;;;;5092019;28;20044;-71
2023/12/06 01:24:29;;;;;;;13.95;9.00;;;2.40;99.90;;;;;;5091906;28;20346;-71
2023/12/06 01:26:54;;;;;;;;;;;2.40;99.90;;;;;;5108524;28;20040;-72
2023/12/06 01:29:20;;;;;;;13.60;8.77;;;3.10;99.90;;;;;;5093171;28;19927;-71
2023/12/06 01:31:45;;;;;;;15.35;8.48;;;2.50;99.90;;;;;;5091297;28;20040;-71
2023/12/06 01:34:11;;;;;;;;;;;2.50;99.90;;;;;;5091236;28;20396;-71
2023/12/06 01:36:36;;;;;;;14.05;8.80;;;2.50;99.90;;;;;;5091136;28;19920;-71
2023/12/06 01:39:03;;;;;;;;;;;2.50;99.90;;;;;;5071555;28;20464;-71
2023/12/06 01:41:29;;;;;;;21.43;9.13;;;2.50;99.90;;;;;;5071034;28;19928;-71
2023/12/06 01:43:54;;;;;;;11.85;8.35;;;2.80;99.90;;;;;;5071445;28;20048;-71
2023/12/06 01:46:20;;;;;;;;;;;3.40;99.90;;;;;;5071441;28;20059;-71
2023/12/06 01:48:50;;;;;;;12.50;8.38;;;2.50;99.90;;;;;;5071209;28;20002;-71
2023/12/06 01:51:17;;;;;;;12.52;8.43;;;2.50;99.90;;;;;;5070996;28;20056;-71
2023/12/06 01:53:43;;;;;;;14.63;9.55;;;2.50;99.90;;;;;;5071210;28;20044;-71
2023/12/06 01:56:12;;;;;;;;;;;2.50;99.90;;;;;;5085600;28;20040;-71
2023/12/06 01:58:41;;;;;;;15.40;9.60;;;2.50;99.90;;;;;;5092711;28;19920;-71
2023/12/06 02:01:06;;;;;;;15.27;8.98;;;2.60;99.90;;;;;;5092241;28;20078;-71
2023/12/06 02:03:33;;;;;;;;;;;2.50;99.90;;;;;;5074696;28;20121;-71
2023/12/06 02:06:00;;;;;;;14.20;8.55;;;2.60;99.90;;;;;;5091070;28;20386;-71
2023/12/06 02:08:27;;;;;;;14.68;9.00;;;2.60;99.90;;;;;;5091236;28;20122;-71
2023/12/06 02:10:55;;;;;;;12.82;8.80;;;2.60;99.90;;;;;;5107776;28;20556;-71
2023/12/06 02:13:21;;;;;;;15.68;9.88;;;2.60;99.90;;;;;;5091761;28;20189;-71
2023/12/06 02:15:47;;;;;;;;;;;2.60;99.90;;;;;;5091718;28;20531;-71
2023/12/06 02:18:13;;;;;;;19.27;10.63;;;2.60;99.90;;;;;;5071835;28;20397;-73
2023/12/06 02:20:39;;;;;;;;;;;2.60;99.90;;;;;;5071497;28;20048;-73
2023/12/06 02:23:06;;;;;;;17.80;10.68;;;2.60;99.90;;;;;;5071544;28;19986;-72
2023/12/06 02:25:32;;;;;;;14.52;10.52;;;2.60;99.90;;;;;;5075245;28;20041;-71
2023/12/06 02:27:58;;;;;;;;;;;2.60;99.90;;;;;;5075152;28;20542;-72
2023/12/06 02:30:24;;;;;;;17.27;10.40;;;2.70;99.90;;;;;;5074739;28;19978;-71
2023/12/06 02:32:49;;;;;;;16.58;10.65;;;2.80;99.90;;;;;;5077053;28;20048;-71
2023/12/06 02:35:27;;;;;;;;;;;2.70;99.90;;;;;;5075871;28;20052;-72
2023/12/06 02:37:55;;;;;;;13.75;10.75;;;2.60;99.90;;;;;;5095515;28;19926;-71
2023/12/06 02:40:22;;;;;;;15.35;10.30;;;2.70;99.90;;;;;;5094817;28;20047;-71
2023/12/06 02:42:48;;;;;;;16.20;10.70;;;2.70;99.90;;;;;;5094589;28;20062;-71
2023/12/06 02:45:14;;;;;;;;;;;2.70;99.90;;;;;;5094581;28;20040;-71
2023/12/06 02:47:42;;;;;;;13.98;9.85;;;2.70;99.90;;;;;;5094729;28;20463;-72
2023/12/06 02:50:08;;;;;;;13.57;9.70;;;2.80;99.90;;;;;;5109490;28;20499;-71
2023/12/06 02:52:34;;;;;;;;;;;2.80;99.90;;;;;;5075200;28;20110;-72
2023/12/06 02:55:00;;;;;;;16.10;9.98;;;2.80;99.90;;;;;;5073847;28;19973;-71
2023/12/06 02:57:25;;;;;;;16.23;10.10;;;2.80;99.90;;;;;;5075769;28;20041;-71
2023/12/06 02:59:51;;;;;;;14.30;9.98;;;2.80;99.90;;;;;;5073955;28;20041;-71
2023/12/06 03:02:16;;;;;;;;;;;2.80;99.90;;;;;;5075410;28;20666;-71
2023/12/06 03:04:42;;;;;;;16.38;10.45;;;2.80;99.90;;;;;;5074185;28;19947;-72
2023/12/06 03:07:07;;;;;;;;;;;2.80;99.90;;;;;;5073836;28;20404;-71
2023/12/06 03:09:33;;;;;;;16.17;9.93;;;2.80;99.90;;;;;;5074076;28;20283;-71
2023/12/06 03:11:58;;;;;;;;;;;2.80;99.90;;;;;;5075424;28;20381;-72
2023/12/06 03:14:24;;;;;;;16.10;10.15;;;2.80;99.90;;;;;;5073459;28;20003;-71
2023/12/06 03:16:49;;;;;;;;;;;2.80;99.90;;;;;;5073965;28;20103;-71
2023/12/06 03:19:15;;;;;;;15.07;10.43;;;2.90;99.90;;;;;;5074619;28;19920;-71
2023/12/06 03:21:43;;;;;;;13.85;9.75;;;2.90;99.90;;;;;;5075173;28;20404;-71
2023/12/06 03:24:12;;;;;;;15.25;10.18;;;2.90;99.90;;;;;;5073327;28;20091;-71
2023/12/06 03:26:37;;;;;;;17.00;10.80;;;2.80;99.90;;;;;;5073245;28;20076;-71
2023/12/06 03:29:03;;;;;;;;;;;2.90;99.90;;;;;;5075384;28;20110;-72
2023/12/06 03:31:29;;;;;;;17.10;10.45;;;2.90;99.90;;;;;;5073861;28;19943;-71
2023/12/06 03:33:54;;;;;;;16.27;10.48;;;2.90;99.90;;;;;;5072928;28;20056;-72
2023/12/06 03:36:20;;;;;;;;;;;2.90;99.90;;;;;;5073041;28;20048;-72
2023/12/06 03:38:45;;;;;;;18.48;10.38;;;3.30;99.90;;;;;;5073525;28;20019;-72
2023/12/06 03:41:14;;;;;;;;;;;4.10;99.90;;;;;;5072834;28;20442;-71
2023/12/06 03:43:39;;;;;;;16.88;10.73;;;3.80;99.90;;;;;;5073530;28;20275;-72
2023/12/06 03:46:07;;;;;;;;;;;3.00;99.90;;;;;;5073382;28;20052;-71
2023/12/06 03:48:32;;;;;;;14.18;10.02;;;3.00;99.90;;;;;;5073077;28;19920;-72
2023/12/06 03:50:58;;;;;;;;;;;3.00;99.90;;;;;;5079099;28;20377;-72
2023/12/06 03:53:24;;;;;;;16.63;10.30;;;3.00;99.90;;;;;;5093041;28;20052;-71
2023/12/06 03:55:50;;;;;;;16.90;10.35;;;3.00;99.90;;;;;;5092563;28;20048;-71
2023/12/06 03:58:15;;;;;;;;;;;3.00;99.90;;;;;;5093481;28;20041;-71
2023/12/06 04:00:41;;;;;;;14.95;9.40;;;3.00;99.90;;;;;;5092816;28;19924;-72
2023/12/06 04:03:09;;;;;;;;;;;3.10;99.90;;;;;;5094031;28;20050;-71
2023/12/06 04:05:35;;;;;;;14.00;9.35;;;3.00;99.90;;;;;;5093706;28;19926;-72
2023/12/06 04:08:00;;;;;;;;;;;3.30;99.90;;;;;;5078403;28;20033;-71
2023/12/06 04:10:26;;;;;;;16.35;9.23;;;3.00;99.90;;;;;;5072914;28;20373;-71
2023/12/06 04:12:52;;;;;;;;;;;3.10;99.90;;;;;;5089241;28;20057;-71
2023/12/06 04:15:17;;;;;;;16.15;8.30;;;3.10;99.90;;;;;;5092929;28;19920;-71
2023/12/06 04:17:43;;;;;;;14.88;8.48;;;3.10;99.90;;;;;;5076162;28;20051;-72
2023/12/06 04:20:09;;;;;;;14.82;9.00;;;3.00;99.90;;;;;;5073731;28;20076;-71
2023/12/06 04:22:38;;;;;;;13.00;8.35;;;3.10;99.90;;;;;;5073560;28;20048;-71
2023/12/06 04:25:04;;;;;;;13.07;8.45;;;2.80;99.90;;;;;;5072170;28;20059;-71
2023/12/06 04:27:30;;;;;;;15.05;9.07;;;3.10;99.90;;;;;;5072818;28;20052;-71
2023/12/06 04:29:55;;;;;;;;;;;3.10;99.90;;;;;;5072723;28;20063;-72
2023/12/06 04:32:21;;;;;;;14.23;9.70;;;3.10;99.90;;;;;;5072180;28;20016;-71
2023/12/06 04:34:48;;;;;;;;;;;3.10;99.90;;;;;;5074131;28;20053;-71
2023/12/06 04:37:16;;;;;;;13.90;9.68;;;3.10;99.90;;;;;;5083560;28;19920;-72
2023/12/06 04:39:42;;;;;;;16.15;10.40;;;3.10;99.90;;;;;;5071976;28;20052;-72
2023/12/06 04:42:08;;;;;;;;;;;3.20;99.90;;;;;;5072022;28;20056;-71
2023/12/06 04:44:33;;;;;;;14.57;9.68;;;3.20;99.90;;;;;;5073246;28;20339;-71
2023/12/06 04:47:00;;;;;;;13.13;8.93;;;3.20;99.90;;;;;;5091332;28;20063;-72
2023/12/06 04:49:25;;;;;;;;;;;3.20;99.90;;;;;;5089606;28;20072;-71
2023/12/06 04:51:52;;;;;;;14.43;9.00;;;3.20;99.90;;;;;;5071859;28;19920;-72
2023/12/06 04:54:18;;;;;;;14.95;9.10;;;3.20;99.90;;;;;;5088924;28;20536;-72
2023/12/06 04:56:44;;;;;;;;;;;3.30;99.90;;;;;;5072409;28;20482;-72
2023/12/06 04:59:09;;;;;;;18.05;8.88;;;3.30;99.90;;;;;;5070944;28;20011;-72
2023/12/06 05:01:35;;;;;;;;;;;3.40;99.90;;;;;;5071641;28;20120;-72
2023/12/06 05:04:00;;;;;;;13.20;7.90;;;4.30;99.90;;;;;;5071526;28;19920;-72
2023/12/06 05:06:26;;;;;;;;;;;3.30;99.90;;;;;;5088929;28;20098;-72
2023/12/06 05:08:54;;;;;;;12.48;8.75;;;3.20;99.90;;;;;;5071563;28;20326;-72
2023/12/06 05:11:20;;;;;;;13.50;9.20;;;3.30;99.90;;;;;;5072827;28;20075;-72
2023/12/06 05:13:46;;;;;;;;;;;3.20;99.90;;;;;;5088751;28;20056;-72
2023/12/06 05:16:15;;;;;;;15.40;8.75;;;3.20;99.90;;;;;;5074853;28;19920;-72
2023/12/06 05:18:43;;;;;;;13.93;9.45;;;3.20;99.90;;;;;;5074551;28;20041;-73
2023/12/06 05:21:08;;;;;;;14.32;9.95;;;1.80;99.90;;;;;;5091843;28;20050;-71
2023/12/06 05:23:37;;;;;;;;;;;3.20;99.90;;;;;;5092581;28;20043;-70
2023/12/06 05:26:04;;;;;;;15.82;10.27;;;3.20;99.90;;;;;;5076891;28;20591;-70
2023/12/06 05:28:29;;;;;;;14.65;9.57;;;3.20;99.90;;;;;;5072108;28;20059;-70
2023/12/06 05:30:55;;;;;;;;;;;3.20;99.90;;;;;;5072714;28;20044;-70
2023/12/06 05:33:20;;;;;;;16.42;10.52;;;3.30;99.90;;;;;;5071901;28;19920;-71
2023/12/06 05:35:46;;;;;;;;;;;3.30;99.90;;;;;;5076659;28;20071;-71
2023/12/06 05:38:12;;;;;;;16.55;10.32;;;3.90;99.90;;;;;;5070630;28;20006;-72
2023/12/06 05:40:43;;;;;;;15.25;10.27;;;3.30;99.90;;;;;;5071368;28;20056;-72
2023/12/06 05:43:09;;;;;;;15.70;10.13;;;4.10;99.90;;;;;;5071429;28;20045;-72
2023/12/06 05:45:35;;;;;;;;;;;3.30;99.90;;;;;;5089019;28;20059;-76
2023/12/06 05:48:00;;;;;;;15.82;10.50;;;3.30;99.90;;;;;;5091122;28;19920;-72
2023/12/06 05:50:26;;;;;;;;;;;3.60;99.90;;;;;;5092966;28;20509;-72
2023/12/06 05:52:52;;;;;;;16.13;10.75;;;3.30;99.90;;;;;;5081112;28;19920;-70
2023/12/06 05:55:18;;;;;;;14.48;10.13;;;3.30;99.90;;;;;;5074193;28;20052;-73
2023/12/06 05:57:43;;;;;;;;;;;3.40;99.90;;;;;;5070714;28;20044;-71
2023/12/06 06:00:12;;;;;;;16.05;9.40;;;3.40;99.90;;;;;;5071266;28;19920;-76
2023/12/06 06:02:44;;;;;;;14.98;10.15;;;3.30;99.90;;;;;;5070572;28;20044;-76
2023/12/06 06:05:11;;;;;;;15.82;10.45;;;3.30;99.90;;;;;;5084172;28;20055;-76
2023/12/06 06:07:37;;;;;;;16.58;9.50;;;3.30;99.90;;;;;;5092301;28;20492;-73
2023/12/06 06:10:03;;;;;;;;;;;3.40;99.90;;;;;;5092309;28;20129;-78
2023/12/06 06:12:29;;;;;;;14.77;8.75;;;3.40;99.90;;;;;;5091204;28;19969;-76
2023/12/06 06:14:58;;;;;;;14.80;8.88;;;3.40;99.90;;;;;;5075984;28;20448;-73
2023/12/06 06:17:23;;;;;;;11.48;8.98;;;3.40;99.90;;;;;;5082172;28;20399;-76
2023/12/06 06:19:49;;;;;;;;;;;3.50;99.90;;;;;;5091621;28;20131;-74
2023/12/06 06:22:14;;;;;;;14.20;8.88;;;3.40;99.90;;;;;;5090644;28;19920;-72
2023/12/06 06:24:40;;;;;;;;;;;3.40;99.90;;;;;;5089815;28;20032;-73
2023/12/06 06:27:06;;;;;;;12.38;8.65;;;3.40;99.90;;;;;;5090349;28;20321;-71
2023/12/06 06:29:31;;;;;;;;;;;3.40;99.90;;;;;;5107939;28;20487;-75
2023/12/06 06:31:57;;;;;;;13.73;8.60;;;3.40;99.90;;;;;;5091275;28;19920;-73
2023/12/06 06:34:22;;;;;;;;;;;3.40;99.90;;;;;;5076564;28;20057;-71
2023/12/06 06:36:48;;;;;;;16.80;9.10;;;3.40;99.90;;;;;;5070359;28;19925;-80
2023/12/06 06:39:14;;;;;;;;;;;3.40;99.90;;;;;;5070453;28;20045;-73
2023/12/06 06:41:40;;;;;;;18.17;10.05;;;3.40;99.90;;;;;;5071772;28;20291;-73
2023/12/06 06:44:07;;;;;;;14.07;8.77;;;3.40;99.90;;;;;;5067250;28;20098;-74
2023/12/06 06:46:33;;;;;;;12.80;8.48;;;3.40;99.90;;;;;;5068409;28;20484;-74
2023/12/06 06:48:59;;;;;;;12.13;8.80;;;3.40;99.90;;;;;;5066848;28;20041;-72
2023/12/06 06:51:37;;;;;;;;;;;3.40;99.90;;;;;;5066176;28;20493;-73
2023/12/06 06:54:07;;;;;;;15.50;9.40;;;3.50;99.90;;;;;;5067000;28;19958;-73
2023/12/06 06:56:33;;;;;;;14.88;9.05;;;3.50;99.90;;;;;;5065881;28;20756;-73
2023/12/06 06:58:59;;;;;;;14.55;9.25;;;3.50;99.90;;;;;;5064678;28;20065;-73
2023/12/06 07:01:27;;;;;;;14.55;8.88;;;3.50;99.90;;;;;;5066168;28;20040;-73
2023/12/06 07:03:53;;;;;;;14.30;9.02;;;3.60;99.90;;;;;;5067805;28;20040;-73
2023/12/06 07:06:20;;;;;;;13.57;8.88;;;3.50;99.90;;;;;;5067563;28;20041;-73
2023/12/06 07:08:46;;;;;;;12.07;8.77;;;4.40;99.90;;;;;;5068237;28;20040;-74
2023/12/06 07:11:12;;;;;;;;;;;3.60;99.90;;;;;;5072095;28;20047;-74
2023/12/06 07:13:37;;;;;;;13.45;8.90;;;3.50;99.90;;;;;;5073452;28;19920;-74
2023/12/06 07:16:04;;;;;;;13.52;8.85;;;4.30;99.90;;;;;;5074282;28;20076;-74
2023/12/06 07:18:32;;;;;;;13.82;8.07;;;3.60;99.90;;;;;;5073258;28;20068;-74
2023/12/06 07:21:01;;;;;;;15.20;9.05;;;3.60;99.90;;;;;;5074802;28;20523;-73
2023/12/06 07:23:26;;;;;;;14.00;7.55;;;3.60;99.90;;;;;;5073374;28;20049;-74
2023/12/06 07:25:52;;;;;;;;;;;3.60;99.90;;;;;;5073279;28;20049;-74
2023/12/06 07:28:18;;;;;;;14.63;8.02;;;3.80;99.90;;;;;;5073469;28;19916;-74
2023/12/06 07:30:47;;;;;;;15.18;7.80;;;3.60;99.90;;;;;;5087995;28;20044;-74
2023/12/06 07:33:16;;;;;;;14.10;8.45;;;3.60;99.90;;;;;;5093112;28;20055;-74
2023/12/06 07:35:42;;;;;;;15.63;9.80;;;3.70;99.90;;;;;;5092101;28;20051;-74
2023/12/06 07:38:09;;;;;;;;;;;3.60;99.90;;;;;;5094425;28;20372;-74
2023/12/06 07:40:35;;;;;;;14.32;9.88;;;3.60;99.90;;;;;;5091577;28;19959;-73
2023/12/06 07:43:10;;;;;;;;;;;3.60;99.90;;;;;;5094001;28;20506;-74
2023/12/06 07:45:35;;;;;;;15.05;7.85;;;3.50;99.90;;;;;;5093745;28;20011;-74
2023/12/06 07:48:02;;;;;;;;;;;3.60;99.90;;;;;;5079629;28;20123;-72
2023/12/06 07:50:28;;;;;;;16.17;9.52;;;3.80;99.90;;;;;;5074043;28;19965;-72
2023/12/06 07:52:57;;;;;;;14.90;9.25;;;4.30;99.90;;;;;;5072914;28;20032;-73
2023/12/06 07:55:22;;;;;;;13.82;9.55;;;3.50;99.90;;;;;;5071808;28;20048;-74
2023/12/06 07:57:48;;;;;;;;;;;3.60;99.90;;;;;;5073364;28;20044;-75
2023/12/06 08:00:15;;;;;;;16.35;9.85;;;3.60;99.90;;;;;;5072252;28;19922;-74
2023/12/06 08:02:42;;;;;;;15.43;9.70;;;3.60;99.90;;;;;;5073605;28;20043;-74
2023/12/06 08:05:09;;;;;;;12.80;9.10;;;3.60;99.90;;;;;;5072039;28;20056;-74
2023/12/06 08:07:36;;;;;;;11.65;7.82;;;3.60;99.90;;;;;;5072077;28;20044;-74
2023/12/06 08:10:12;;;;;;;12.13;6.78;;;4.00;99.90;;;;;;5072925;28;20094;-74
2023/12/06 08:12:38;;;;;;;;;;;3.60;99.90;;;;;;5072620;28;20063;-75
2023/12/06 08:15:07;;;;;;;10.32;6.72;;;3.60;99.90;;;;;;5073025;28;19920;-73
2023/12/06 08:17:36;;;;;;;9.32;5.70;;;3.60;99.90;;;;;;5072279;28;20532;-73
2023/12/06 08:20:08;;;;;;;11.88;6.15;;;3.60;99.90;;;;;;5072054;28;20048;-73
2023/12/06 08:22:34;;;;;;;8.52;5.78;;;3.70;99.90;;;;;;5071478;28;20036;-73
2023/12/06 08:24:59;;;;;;;;;;;3.70;99.90;;;;;;5072343;28;20049;-72
2023/12/06 08:27:29;;;;;;;9.95;6.28;;;3.60;99.90;;;;;;5072092;28;19924;-73
2023/12/06 08:29:55;;;;;;;10.63;6.78;;;4.50;99.90;;;;;;5071630;28;20040;-72
2023/12/06 08:32:21;;;;;;;14.35;6.90;;;3.70;99.90;;;;;;5072779;28;20047;-73
2023/12/06 08:34:47;;;;;;;10.13;6.68;;;3.70;99.90;;;;;;5071969;28;20492;-72
2023/12/06 08:37:13;;;;;;;;;;;3.70;99.90;;;;;;5071750;28;20055;-72
2023/12/06 08:39:38;;;;;;;10.23;6.00;;;3.70;99.90;;;;;;5071876;28;19920;-74
2023/12/06 08:42:05;;;;;;;;;;;3.80;99.90;;;;;;5072119;28;20467;-74
2023/12/06 08:44:37;;;;;;;10.27;5.57;;;3.70;99.90;;;;;;5071550;28;19920;-72
2023/12/06 08:47:03;;;;;;;9.93;6.88;;;3.80;99.90;;;;;;5072525;28;20082;-73
2023/12/06 08:49:29;;;;;;;11.15;5.90;;;3.80;99.90;;;;;;5073000;28;20438;-72
2023/12/06 08:51:56;;;;;;;;;;;3.80;99.90;;;;;;5071945;28;20040;-72
2023/12/06 08:54:24;;;;;;;9.65;6.00;;;3.70;99.90;;;;;;5071421;28;19921;-74
2023/12/06 08:56:50;;;;;;;9.18;5.65;;;3.70;99.90;;;;;;5084305;28;20048;-74
2023/12/06 08:59:18;;;;;;;10.27;6.15;;;3.70;99.90;;;;;;5074399;28;20151;-74
2023/12/06 09:01:47;;;;;;;;;;;3.70;99.90;;;;;;5088501;28;20119;-73
2023/12/06 09:04:13;;;;;;;10.30;7.13;;;3.80;99.90;;;;;;5094656;28;20371;-75
2023/12/06 09:06:38;;;;;;;;;;;3.70;99.90;;;;;;5093836;28;20040;-69
2023/12/06 09:09:05;;;;;;;12.55;7.43;;;3.70;99.90;;;;;;5091498;28;20022;-70
2023/12/06 09:11:31;;;;;;;10.35;7.00;;;3.80;99.90;;;;;;5081576;28;20400;-69
2023/12/06 09:13:57;;;;;;;11.50;7.20;;;4.00;99.90;;;;;;5073156;28;20037;-70
2023/12/06 09:16:22;;;;;;;;;;;3.80;99.90;;;;;;5073146;28;20392;-70
2023/12/06 09:18:48;;;;;;;12.65;7.78;;;3.80;99.90;;;;;;5071411;28;20007;-70
2023/12/06 09:21:13;;;;;;;;;;;3.80;99.90;;;;;;5072637;28;20087;-70
2023/12/06 09:23:42;;;;;;;8.93;6.28;;;3.80;99.90;;;;;;5071511;28;19928;-70
2023/12/06 09:26:11;;;;;;;9.88;6.40;;;3.90;99.90;;;;;;5070837;28;20041;-70
2023/12/06 09:28:38;;;;;;;11.43;6.22;;;3.90;99.90;;;;;;5071478;28;20055;-70
2023/12/06 09:31:03;;;;;;;8.85;5.82;;;4.80;99.90;;;;;;5059396;28;20547;-70
2023/12/06 09:33:38;;;;;;;;;;;4.50;99.90;;;;;;5090706;28;20131;-70
2023/12/06 09:36:04;;;;;;;10.25;7.20;;;4.00;99.90;;;;;;5091041;28;19927;-71
2023/12/06 09:38:30;;;;;;;;;;;4.00;99.90;;;;;;5093386;28;20390;-70
2023/12/06 09:40:56;;;;;;;10.52;7.60;;;4.10;99.90;;;;;;5073303;28;19966;-70
2023/12/06 09:43:21;;;;;;;17.75;8.18;;;4.10;99.90;;;;;;5072082;28;20053;-71
2023/12/06 09:45:48;;;;;;;11.80;8.80;;;4.20;99.90;;;;;;5072285;28;20090;-70
2023/12/06 09:48:14;;;;;;;12.05;8.30;;;4.20;99.90;;;;;;5070383;28;20102;-70
2023/12/06 09:50:40;;;;;;;11.68;8.45;;;4.20;99.90;;;;;;5069992;28;20389;-71
2023/12/06 09:53:06;;;;;;;;;;;4.30;99.90;;;;;;5072127;28;20130;-70
2023/12/06 09:55:35;;;;;;;12.05;7.80;;;4.30;99.90;;;;;;5070990;28;20372;-70
2023/12/06 09:58:06;;;;;;;11.13;8.00;;;4.30;99.90;;;;;;5072081;28;20435;-71
2023/12/06 10:00:31;;;;;;;13.35;8.00;;;4.40;99.90;;;;;;5071101;28;20075;-71
2023/12/06 10:02:57;;;;;;;;;;;4.40;99.90;;;;;;5086349;28;20082;-71
2023/12/06 10:05:23;;;;;;;9.48;6.65;;;4.40;99.90;;;;;;5071020;28;20384;-71
2023/12/06 10:07:54;;;;;;;13.95;7.55;;;4.50;99.90;;;;;;5072322;28;20049;-72
2023/12/06 10:10:23;;;;;;;15.07;9.23;;;4.50;99.90;;;;;;5071817;28;20088;-71
2023/12/06 10:12:56;;;;;;;12.63;7.78;;;4.60;99.90;;;;;;5087249;28;20048;-71
2023/12/06 10:15:22;;;;;;;10.90;7.50;;;4.60;99.90;;;;;;5107493;28;20066;-71
2023/12/06 10:17:48;;;;;;;;;;;4.60;99.90;;;;;;5108544;28;20439;-72
2023/12/06 10:20:21;;;;;;;10.30;6.70;;;4.60;99.90;;;;;;5087518;28;19920;-72
2023/12/06 10:22:47;;;;;;;10.38;6.97;;;4.70;99.90;;;;;;5107729;28;20048;-70
2023/12/06 10:25:13;;;;;;;9.27;6.50;;;4.60;99.90;;;;;;5090794;28;20059;-70
2023/12/06 10:27:39;;;;;;;;;;;4.60;99.90;;;;;;5090799;28;20391;-71
2023/12/06 10:30:05;;;;;;;14.85;8.77;;;4.60;99.90;;;;;;5087859;28;19920;-72
2023/12/06 10:32:33;;;;;;;15.50;8.07;;;4.60;99.90;;;;;;5092025;28;20097;-71
2023/12/06 10:35:05;;;;;;;15.10;7.82;;;4.60;99.90;;;;;;5091129;28;20429;-71
2023/12/06 10:37:32;;;;;;;21.75;14.55;;;4.60;99.90;;;;;;5090981;28;20040;-71
2023/12/06 10:40:09;;;;;;;27.77;23.50;;;4.50;99.90;;;;;;5077117;28;20058;-72
2023/12/06 10:42:35;;;;;;;15.70;12.85;;;4.50;99.90;;;;;;5070543;28;20068;-71
2023/12/06 10:45:03;;;;;;;15.40;13.40;;;4.50;99.90;;;;;;5073390;28;20059;-71
2023/12/06 10:47:33;;;;;;;12.10;9.60;;;4.50;99.90;;;;;;5075781;28;20052;-71
2023/12/06 10:50:03;;;;;;;10.40;7.90;;;4.50;99.90;;;;;;5075908;28;20079;-72
2023/12/06 10:52:30;;;;;;;11.27;7.05;;;4.90;99.90;;;;;;5076030;28;20044;-71
2023/12/06 10:54:58;;;;;;;11.60;7.03;;;4.60;99.90;;;;;;5074186;28;20048;-71
2023/12/06 10:57:28;;;;;;;13.13;7.22;;;4.60;99.90;;;;;;5074664;28;20543;-71
2023/12/06 10:59:58;;;;;;;12.20;6.80;;;4.60;99.90;;;;;;5094869;28;20044;-72
2023/12/06 11:02:23;;;;;;;11.88;6.38;;;4.60;99.90;;;;;;5093951;28;20044;-72
2023/12/06 11:04:51;;;;;;;;;;;4.70;99.90;;;;;;5096060;28;20492;-71
2023/12/06 11:07:48;;;;;;;9.05;6.13;;;4.70;99.90;;;;;;5094296;28;19970;-72
2023/12/06 11:10:46;;;;;;;11.87;6.10;;;4.80;99.90;;;;;;5094117;28;20048;-72
2023/12/06 11:13:40;;;;;;;11.82;7.05;;;4.90;99.90;;;;;;5053968;28;20695;-72
2023/12/06 11:16:48;;;;;;;10.40;6.50;;;5.00;99.90;;;;;;5053906;28;20049;-71
2023/12/06 11:19:18;;;;;;;9.45;6.13;;;5.00;99.90;;;;;;5053599;28;20045;-71
2023/12/06 11:21:44;;;;;;;8.57;5.55;;;4.90;99.90;;;;;;5063033;28;20091;-70
2023/12/06 11:24:10;;;;;;;8.77;5.70;;;4.90;99.90;;;;;;5073487;28;20053;-71
2023/12/06 11:26:36;;;;;;;9.55;6.22;;;5.00;99.90;;;;;;5073700;28;20488;-71
2023/12/06 11:29:06;;;;;;;13.10;5.80;;;4.90;99.90;;;;;;5073431;28;20051;-71
2023/12/06 11:31:35;;;;;;;11.15;6.70;;;4.90;99.90;;;;;;5074676;28;20495;-72
2023/12/06 11:34:07;;;;;;;9.63;6.13;;;4.90;99.90;;;;;;5073384;28;20049;-71
2023/12/06 11:36:35;;;;;;;11.93;8.15;;;4.90;99.90;;;;;;5073588;28;20048;-72
2023/12/06 11:39:21;;;;;;;19.73;11.07;;;4.90;99.90;;;;;;5075323;28;20472;-72
2023/12/06 11:41:54;;;;;;;26.20;14.88;;;4.90;99.90;;;;;;5094689;28;20545;-73
2023/12/06 11:44:22;;;;;;;14.18;10.52;;;4.90;99.90;;;;;;5093373;28;20042;-74
2023/12/06 11:46:49;;;;;;;12.55;8.07;;;4.90;99.90;;;;;;5091336;28;20123;-74
2023/12/06 11:49:18;;;;;;;12.65;8.00;;;4.80;99.90;;;;;;5110138;28;20480;-73
2023/12/06 11:51:43;;;;;;;13.00;7.22;;;5.60;99.90;;;;;;5095247;28;20048;-72
2023/12/06 11:54:09;;;;;;;;;;;4.80;99.90;;;;;;5093037;28;20048;-72
2023/12/06 11:56:35;;;;;;;11.25;6.70;;;4.90;99.90;;;;;;5092101;28;20342;-73
2023/12/06 11:59:02;;;;;;;;;;;4.80;99.90;;;;;;5110064;28;20043;-71
2023/12/06 12:01:32;;;;;;;;;;;5.20;99.90;;;;;;5077027;28;19920;-72
2023/12/06 12:03:59;;;;;;;13.82;7.88;;;4.70;99.90;;;;;;5073043;28;19924;-72
2023/12/06 12:06:27;;;;;;;13.13;8.07;;;4.80;99.90;;;;;;5073427;28;20091;-72
2023/12/06 12:08:53;;;;;;;14.07;8.70;;;4.80;99.90;;;;;;5072772;28;20098;-72
2023/12/06 12:11:19;;;;;;;;;;;4.90;99.90;;;;;;5074444;28;20060;-73
2023/12/06 12:13:44;;;;;;;13.25;7.90;;;4.80;99.90;;;;;;5072708;28;20003;-73
2023/12/06 12:16:15;;;;;;;11.38;7.65;;;4.90;99.90;;;;;;5072671;28;20136;-73
2023/12/06 12:18:42;;;;;;;12.65;7.22;;;5.00;99.90;;;;;;5072959;28;20045;-73
2023/12/06 12:21:16;;;;;;;9.65;7.25;;;5.00;99.90;;;;;;5083788;28;20046;-73
2023/12/06 12:23:42;;;;;;;9.20;6.32;;;5.10;99.90;;;;;;5094525;28;20051;-73
2023/12/06 12:26:16;;;;;;;11.70;7.18;;;5.10;99.90;;;;;;5092883;28;20040;-73
2023/12/06 12:28:42;;;;;;;8.75;6.18;;;5.10;99.90;;;;;;5091151;28;20044;-73
2023/12/06 12:31:13;;;;;;;11.00;6.72;;;5.20;99.90;;;;;;5092136;28;20047;-73
2023/12/06 12:33:40;;;;;;;12.15;7.53;;;5.10;99.90;;;;;;5077994;28;20057;-73
2023/12/06 12:36:09;;;;;;;13.98;8.85;;;5.50;99.90;;;;;;5090657;28;20044;-72
2023/12/06 12:38:38;;;;;;;13.63;9.38;;;5.00;99.90;;;;;;5094062;28;20123;-71
2023/12/06 12:41:08;;;;;;;11.63;8.88;;;5.00;99.90;;;;;;5090402;28;20088;-71
2023/12/06 12:43:34;;;;;;;12.45;7.50;;;5.00;99.90;;;;;;5092129;28;20069;-71
2023/12/06 12:46:02;;;;;;;;;;;5.00;99.90;;;;;;5076359;28;20045;-71
2023/12/06 12:48:30;;;;;;;12.55;6.93;;;4.90;99.90;;;;;;5072342;28;20291;-70
2023/12/06 12:51:15;;;;;;;13.60;8.77;;;4.90;99.90;;;;;;5071875;28;20051;-70
2023/12/06 12:53:44;;;;;;;20.23;8.93;;;4.90;99.90;;;;;;5081835;28;20044;-68
2023/12/06 12:56:13;;;;;;;18.95;9.75;;;4.90;99.90;;;;;;5074708;28;20079;-71
2023/12/06 12:58:39;;;;;;;29.20;13.55;;;4.90;99.90;;;;;;5071493;28;20070;-71
2023/12/06 13:01:08;;;;;;;;;;;4.90;99.90;;;;;;5072306;28;20242;-70
2023/12/06 13:03:34;;;;;;;20.08;11.02;;;4.90;99.90;;;;;;5083749;28;20298;-72
2023/12/06 13:06:01;;;;;;;;;;;4.90;99.90;;;;;;5072133;28;20051;-71
2023/12/06 13:08:33;;;;;;;10.65;6.55;;;4.90;99.90;;;;;;5071475;28;20052;-71
2023/12/06 13:11:02;;;;;;;10.43;6.68;;;5.00;99.90;;;;;;5070586;28;20041;-69
2023/12/06 13:13:27;;;;;;;;;;;5.00;99.90;;;;;;5071410;28;20066;-71